INFORMAÇÕES METEOROLÓGICAS
METAR FOR SBSP
ADDS - METARS form results

(1209 UTC 24 April 2018)
Data provider http://aviationweather.gov/adds/metars/
 
METAR text: SBSP 241200Z 07004KT 9999 FEW011 20/16 Q1024
Conditions at: SBSP (SAO PAULO/CONGON, BR) observed 1200 UTC 24 April 2018
Temperature: 20.0°C (68°F)
Dewpoint: 16.0°C (61°F) [RH = 78%]
Pressure (altimeter): 30.24 inches Hg (1024.0 mb)
Winds: from the ENE (70 degrees) at 5 MPH (4 knots; 2.1 m/s)
Visibility: 6 or more miles (10+ km)
Ceiling: at least 12,000 feet AGL
Clouds: few clouds at 1100 feet AGL
Weather: no significant weather observed at this time

Forecast for: SBSP (SAO PAULO/CONGON, BR)
Text: TAF SBSP 240900Z 2412/2512 09005KT 8000 SCT012 TX26/2417Z TN16/2508Z
Forecast period: 1200 to 1300 UTC 24 April 2018
Forecast type: FROM: standard forecast or significant change
Winds: from the E (90 degrees) at 6 MPH (5 knots; 2.6 m/s)
Visibility: 5 miles (8 km)
Clouds: scattered clouds at 1200 feet AGL
Weather: no significant weather forecast for this period
Forecast for: SBSP (SAO PAULO/CONGON, BR)
Text: TAF SBSP 240900Z 2412/2512 09005KT 8000 SCT012 TX26/2417Z TN16/2508Z
Forecast period: 1200 to 1300 UTC 24 April 2018
Forecast type: FROM: standard forecast or significant change
Winds: from the E (90 degrees) at 6 MPH (5 knots; 2.6 m/s)
Visibility: 5 miles (8 km)
Clouds: scattered clouds at 1200 feet AGL
Weather: no significant weather forecast for this period
Forecast for: SBSP (SAO PAULO/CONGON, BR)
Text: TAF SBSP 240900Z 2412/2512 09005KT 8000 SCT012 TX26/2417Z TN16/2508Z
Forecast period: 1300 to 1800 UTC 24 April 2018
Forecast type: BECOMING: Conditions expected to become as follows by 1500 UTC 24 April 2018
Winds: from the SE (140 degrees) at 6 MPH (5 knots; 2.6 m/s)
Visibility: 6 or more miles (10+ km)
Clouds: scattered clouds at 4000 feet AGL
Weather: no significant weather forecast for this period
Forecast for: SBSP (SAO PAULO/CONGON, BR)
Text: TAF SBSP 240900Z 2412/2512 09005KT 8000 SCT012 TX26/2417Z TN16/2508Z
Forecast period: 1300 to 1800 UTC 24 April 2018
Forecast type: BECOMING: Conditions expected to become as follows by 1500 UTC 24 April 2018
Winds: from the SE (140 degrees) at 6 MPH (5 knots; 2.6 m/s)
Visibility: 6 or more miles (10+ km)
Clouds: scattered clouds at 4000 feet AGL
Weather: no significant weather forecast for this period
Forecast for: SBSP (SAO PAULO/CONGON, BR)
Text: TAF SBSP 240900Z 2412/2512 09005KT 8000 SCT012 TX26/2417Z TN16/2508Z
Forecast period: 1800 UTC 24 April 2018 to 0200 UTC 25 April 2018
Forecast type: BECOMING: Conditions expected to become as follows by 2000 UTC 24 April 2018
Winds: from the SE (140 degrees) at 6 MPH (5 knots; 2.6 m/s)
Visibility: 5 miles (8 km)
Weather: no significant weather forecast for this period
Forecast for: SBSP (SAO PAULO/CONGON, BR)
Text: TAF SBSP 240900Z 2412/2512 09005KT 8000 SCT012 TX26/2417Z TN16/2508Z
Forecast period: 1800 UTC 24 April 2018 to 0200 UTC 25 April 2018
Forecast type: BECOMING: Conditions expected to become as follows by 2000 UTC 24 April 2018
Winds: from the SE (140 degrees) at 6 MPH (5 knots; 2.6 m/s)
Visibility: 5 miles (8 km)
Weather: no significant weather forecast for this period
Forecast for: SBSP (SAO PAULO/CONGON, BR)
Text: TAF SBSP 240900Z 2412/2512 09005KT 8000 SCT012 TX26/2417Z TN16/2508Z
Forecast period: 0200 to 0500 UTC 25 April 2018
Forecast type: BECOMING: Conditions expected to become as follows by 0400 UTC 25 April 2018
Winds: from the E (90 degrees) at 2 MPH (2 knots; 1.0 m/s)
Visibility: 5 miles (8 km)
Weather: no significant weather forecast for this period
Forecast for: SBSP (SAO PAULO/CONGON, BR)
Text: TAF SBSP 240900Z 2412/2512 09005KT 8000 SCT012 TX26/2417Z TN16/2508Z
Forecast period: 0200 to 0500 UTC 25 April 2018
Forecast type: BECOMING: Conditions expected to become as follows by 0400 UTC 25 April 2018
Winds: from the E (90 degrees) at 2 MPH (2 knots; 1.0 m/s)
Visibility: 5 miles (8 km)
Weather: no significant weather forecast for this period
Forecast for: SBSP (SAO PAULO/CONGON, BR)
Text: TAF SBSP 240900Z 2412/2512 09005KT 8000 SCT012 TX26/2417Z TN16/2508Z
Forecast period: 0500 to 1200 UTC 25 April 2018
Forecast type: BECOMING: Conditions expected to become as follows by 0700 UTC 25 April 2018
Winds: from the E (90 degrees) at 2 MPH (2 knots; 1.0 m/s)
Visibility: 2.49 miles (4.01 km)
Clouds: scattered clouds at 1200 feet AGL
Weather: BR  (mist)
Forecast for: SBSP (SAO PAULO/CONGON, BR)
Text: TAF SBSP 240900Z 2412/2512 09005KT 8000 SCT012 TX26/2417Z TN16/2508Z
Forecast period: 0500 to 1200 UTC 25 April 2018
Forecast type: BECOMING: Conditions expected to become as follows by 0700 UTC 25 April 2018
Winds: from the E (90 degrees) at 2 MPH (2 knots; 1.0 m/s)
Visibility: 2.49 miles (4.01 km)
Clouds: scattered clouds at 1200 feet AGL
Weather: BR  (mist)
Forecast for: SBSP (SAO PAULO/CONGON, BR)
Text: TAF SBSP 240900Z 2412/2512 09005KT 8000 SCT012 TX26/2417Z TN16/2508Z
Forecast period: 0700 to 1100 UTC 25 April 2018
Forecast type: PROBABLE: 30 percent likelihood of the following during this time
Ceiling: 800 feet AGL
Clouds: broken clouds at 800 feet AGL
Weather: no significant weather forecast for this period
Forecast for: SBSP (SAO PAULO/CONGON, BR)
Text: TAF SBSP 240900Z 2412/2512 09005KT 8000 SCT012 TX26/2417Z TN16/2508Z
Forecast period: 0700 to 1100 UTC 25 April 2018
Forecast type: PROBABLE: 30 percent likelihood of the following during this time
Ceiling: 800 feet AGL
Clouds: broken clouds at 800 feet AGL
Weather: no significant weather forecast for this period

 MAPA DO AEROPORTO

 INFORMAÇÕES DA PISTA
Pista 17L Tamanho da pista 4708 ft Largura da pista 148 ft
Elevação da pista 0 ft Ranhura da pista 0 ft Proa da pista 0
Pista 35R Tamanho da pista 4708 ft Largura da pista 148 ft
Elevação da pista 0 ft Ranhura da pista 0 ft Proa da pista 0
Pista 17R Tamanho da pista 6365 ft Largura da pista 148 ft
Elevação da pista 0 ft Ranhura da pista 0 ft Proa da pista 0
Pista 35L Tamanho da pista 6365 ft Largura da pista 148 ft
Elevação da pista 0 ft Ranhura da pista 0 ft Proa da pista 0

 FREQUÊNCIAS DO AEROPORTO
Tipo APP Nome SAO PAULO Frequência 119.8 MHZ
Tipo ATIS Nome ATIS Frequência 127.65 MHZ
Tipo CLD Nome CLNC DEL Frequência 120.6 MHZ
Tipo GND Nome GND Frequência 121.9 MHZ
Tipo TWR Nome SAO PAULO Frequência 127.15 MHZ

 AUXÍLIOS DE NAVEGAÇÃO PRÓXIMOS AO AEROPORTO
Tipo VOR-DME Nome Congonhas Frequência 116900 KHZ
Tipo NDB Nome Diadema Frequência 200 KHZ
Tipo NDB Nome Mada Frequência 290 KHZ
Tipo NDB Nome Metro Frequência 330 KHZ
Tipo NDB Nome Sao Paulo Frequência 250 KHZ





Powered by Virtual Airlines Manager [v2.6.2]